Time;durP1;ratioP1;P1;durP2;ratioP2;P2;SDS_P1;SDS_P2;PMS_P1;PMS_P2;Temp;Humidity;BMP_temperature;BMP_pressure;BME280_temperature;BME280_humidity;BME280_pressure;Samples;Min_cycle;Max_cycle;Signal;HPM_P1;HPM_P2
2021/12/11 00:00:22;;;;;;;27.73;8.60;;;-2.00;97.30;;;;;;4994124;28;20465;-86
2021/12/11 00:03:03;;;;;;;25.40;9.40;;;-2.00;97.30;;;;;;4995102;28;20420;-86
2021/12/11 00:05:29;;;;;;;31.07;9.70;;;-2.00;97.30;;;;;;4995461;28;20908;-86
2021/12/11 00:07:56;;;;;;;20.40;9.30;;;-2.10;97.30;;;;;;4995206;28;20441;-86
2021/12/11 00:10:28;;;;;;;28.13;9.87;;;-2.10;97.30;;;;;;4995360;28;20436;-86
2021/12/11 00:12:58;;;;;;;17.83;9.00;;;-2.10;97.30;;;;;;4991034;28;20417;-86
2021/12/11 00:15:34;;;;;;;17.27;7.67;;;-2.10;97.30;;;;;;4994767;28;20413;-87
2021/12/11 00:18:03;;;;;;;22.97;9.13;;;-2.20;97.30;;;;;;4995363;28;20448;-86
2021/12/11 00:20:33;;;;;;;20.57;8.17;;;-2.20;97.30;;;;;;4994743;28;20771;-85
2021/12/11 00:22:59;;;;;;;21.17;7.87;;;-2.20;97.30;;;;;;4995119;28;20413;-87
2021/12/11 00:25:25;;;;;;;20.00;7.80;;;-2.30;97.30;;;;;;4994640;28;20491;-86
2021/12/11 00:27:52;;;;;;;31.20;10.77;;;-2.30;97.30;;;;;;4994391;28;20460;-87
2021/12/11 00:30:26;;;;;;;20.33;9.17;;;-2.30;97.30;;;;;;4994632;28;20288;-86
2021/12/11 00:32:59;;;;;;;20.90;8.87;;;-2.30;97.30;;;;;;4989511;28;20548;-87
2021/12/11 00:35:24;;;;;;;23.13;8.57;;;-2.30;97.30;;;;;;4994952;28;20950;-87
2021/12/11 00:37:50;;;;;;;23.87;9.30;;;-2.30;97.30;;;;;;4994556;28;20442;-87
2021/12/11 00:40:24;;;;;;;21.60;8.03;;;-2.40;97.30;;;;;;5011188;28;20573;-87
2021/12/11 00:42:52;;;;;;;16.80;7.60;;;-2.30;97.30;;;;;;4995143;28;20551;-87
2021/12/11 00:45:21;;;;;;;19.67;8.00;;;-2.30;97.30;;;;;;4994866;28;20503;-87
2021/12/11 00:47:51;;;;;;;27.93;9.43;;;-2.40;97.30;;;;;;4995499;28;20491;-86
2021/12/11 00:50:25;;;;;;;26.80;10.27;;;-2.40;97.30;;;;;;4994322;28;20979;-82
2021/12/11 00:53:10;;;;;;;20.57;8.03;;;-2.40;97.30;;;;;;4996702;28;20768;-87
2021/12/11 00:55:43;;;;;;;25.67;7.33;;;-2.50;97.30;;;;;;4997173;28;20480;-82
2021/12/11 00:58:24;;;;;;;25.50;8.37;;;-2.50;97.30;;;;;;4995031;28;20460;-87
2021/12/11 01:00:52;;;;;;;18.73;8.93;;;-2.50;97.30;;;;;;4996836;28;20963;-84
2021/12/11 01:03:53;;;;;;;22.07;8.00;;;-2.50;97.30;;;;;;4994929;28;20444;-87
2021/12/11 01:06:20;;;;;;;29.43;8.20;;;-2.50;97.30;;;;;;4994593;28;20432;-86
2021/12/11 01:08:56;;;;;;;26.40;9.87;;;-2.50;97.30;;;;;;5010637;28;20484;-86
2021/12/11 01:11:31;;;;;;;22.87;7.50;;;-2.60;97.30;;;;;;4994590;28;20463;-87
2021/12/11 01:14:18;;;;;;;22.67;8.40;;;-2.50;97.30;;;;;;4995264;28;20408;-87
2021/12/11 01:17:00;;;;;;;30.50;9.80;;;-2.60;97.30;;;;;;4994207;28;20427;-86
2021/12/11 01:19:28;;;;;;;21.40;8.90;;;-2.50;97.30;;;;;;5010143;28;20471;-87
2021/12/11 01:21:58;;;;;;;23.20;9.10;;;-2.60;97.30;;;;;;4994306;28;20409;-87
2021/12/11 01:24:46;;;;;;;31.27;9.03;;;-2.50;97.30;;;;;;4994404;28;20985;-87
2021/12/11 01:27:18;;;;;;;25.13;9.17;;;-2.60;97.30;;;;;;4993785;28;20412;-87
2021/12/11 01:29:45;;;;;;;21.27;8.80;;;-2.60;97.30;;;;;;4993285;28;20438;-87
2021/12/11 01:32:12;;;;;;;19.83;8.03;;;-2.60;97.30;;;;;;4993361;28;20919;-87
2021/12/11 01:34:38;;;;;;;30.57;9.57;;;-2.60;97.30;;;;;;4993207;28;20479;-87
2021/12/11 01:37:05;;;;;;;27.03;9.07;;;-2.60;97.30;;;;;;4993206;28;20433;-86
2021/12/11 01:39:34;;;;;;;21.93;8.67;;;-2.70;97.30;;;;;;4993615;28;20866;-86
2021/12/11 01:42:06;;;;;;;22.00;8.07;;;-2.70;97.30;;;;;;4993689;28;20413;-87
2021/12/11 01:44:35;;;;;;;20.30;9.43;;;-2.70;97.30;;;;;;4993335;28;20404;-86
2021/12/11 01:47:06;;;;;;;24.57;10.03;;;-2.70;97.30;;;;;;4993214;28;20417;-87
2021/12/11 01:49:32;;;;;;;23.60;10.20;;;-2.70;97.30;;;;;;4993057;28;20440;-87
2021/12/11 01:52:08;;;;;;;20.37;9.10;;;-2.70;97.30;;;;;;4993405;28;20480;-86
2021/12/11 01:54:38;;;;;;;16.17;7.50;;;-2.80;97.30;;;;;;4992994;28;20436;-87
2021/12/11 01:57:22;;;;;;;27.73;9.30;;;-2.80;97.30;;;;;;4993151;28;20483;-86
2021/12/11 01:59:57;;;;;;;31.10;9.83;;;-2.80;97.30;;;;;;4994184;28;20843;-87
2021/12/11 02:02:46;;;;;;;20.10;8.30;;;-2.90;97.30;;;;;;4995427;28;20416;-86
2021/12/11 02:05:14;;;;;;;26.37;8.27;;;-2.90;97.30;;;;;;4993547;28;20413;-87
2021/12/11 02:07:47;;;;;;;29.57;9.90;;;-2.90;97.30;;;;;;4994218;28;20405;-87
2021/12/11 02:10:20;;;;;;;22.77;9.97;;;-2.90;97.30;;;;;;4994868;28;20429;-87
2021/12/11 02:12:46;;;;;;;23.27;8.40;;;-2.90;97.30;;;;;;4993638;28;20428;-86
2021/12/11 02:15:19;;;;;;;24.83;9.00;;;-3.00;97.30;;;;;;4994033;28;20417;-87
2021/12/11 02:17:50;;;;;;;28.70;8.90;;;-3.00;97.30;;;;;;4995001;28;20166;-86
2021/12/11 02:20:23;;;;;;;26.13;9.93;;;-2.90;97.30;;;;;;4993374;28;20433;-86
2021/12/11 02:22:50;;;;;;;29.17;9.87;;;-3.00;97.30;;;;;;4992393;28;20412;-87
2021/12/11 02:25:32;;;;;;;21.30;9.27;;;-3.00;97.30;;;;;;4992134;28;20421;-86
2021/12/11 02:28:21;;;;;;;20.83;7.97;;;-3.00;97.30;;;;;;4992792;28;20421;-86
2021/12/11 02:31:05;;;;;;;29.37;10.23;;;-3.00;97.30;;;;;;4992769;28;20512;-86
2021/12/11 02:33:46;;;;;;;30.50;9.20;;;-3.00;97.30;;;;;;4993738;28;20464;-86
2021/12/11 02:36:22;;;;;;;23.10;9.03;;;-3.00;97.30;;;;;;4992566;28;20428;-87
2021/12/11 02:39:15;;;;;;;19.53;7.77;;;-3.00;97.30;;;;;;4993226;28;20490;-87
2021/12/11 02:42:03;;;;;;;19.30;8.73;;;-3.00;97.30;;;;;;4992329;28;20421;-87
2021/12/11 02:44:31;;;;;;;25.30;9.30;;;-3.10;97.30;;;;;;4992234;28;20401;-87
2021/12/11 02:47:09;;;;;;;24.57;9.20;;;-3.10;97.30;;;;;;4993669;28;20421;-86
2021/12/11 02:49:48;;;;;;;27.20;9.77;;;-3.10;97.30;;;;;;4992408;28;20450;-87
2021/12/11 02:52:27;;;;;;;20.33;8.80;;;-3.00;97.30;;;;;;4992192;28;20418;-85
2021/12/11 02:54:59;;;;;;;21.80;9.57;;;-3.10;97.30;;;;;;4992503;28;20484;-86
2021/12/11 02:57:31;;;;;;;36.07;9.77;;;-3.10;97.30;;;;;;4991889;28;20770;-86
2021/12/11 03:00:12;;;;;;;21.23;8.90;;;-3.20;97.30;;;;;;4991892;28;21207;-86
2021/12/11 03:02:44;;;;;;;24.30;9.43;;;-3.20;97.30;;;;;;4993368;28;20416;-87
2021/12/11 03:05:12;;;;;;;25.17;9.77;;;-3.20;97.30;;;;;;4984818;28;20409;-86
2021/12/11 03:07:43;;;;;;;20.13;9.33;;;-3.10;97.30;;;;;;4992586;28;20445;-86
2021/12/11 03:10:14;;;;;;;32.47;10.57;;;-3.00;97.30;;;;;;4976940;28;20441;-86
2021/12/11 03:12:43;;;;;;;24.77;9.50;;;-3.00;97.30;;;;;;4992419;28;20440;-86
2021/12/11 03:15:10;;;;;;;21.67;9.20;;;-3.00;97.30;;;;;;4984547;28;20428;-86
2021/12/11 03:17:36;;;;;;;33.83;9.77;;;-3.00;97.30;;;;;;4992102;28;20460;-87
2021/12/11 03:20:05;;;;;;;28.13;11.00;;;-3.00;97.30;;;;;;4992119;28;21122;-86
2021/12/11 03:22:33;;;;;;;22.57;9.40;;;-3.00;97.30;;;;;;4992547;28;20417;-87
2021/12/11 03:25:01;;;;;;;24.93;10.70;;;-3.00;97.30;;;;;;4992422;28;20512;-87
2021/12/11 03:27:26;;;;;;;25.43;8.57;;;-3.00;97.30;;;;;;4993352;28;20416;-86
2021/12/11 03:29:53;;;;;;;32.10;10.33;;;-3.00;97.30;;;;;;4992572;28;20787;-86
2021/12/11 03:32:21;;;;;;;32.97;11.97;;;-3.00;97.30;;;;;;4992336;28;20177;-86
2021/12/11 03:34:47;;;;;;;42.07;14.17;;;-2.90;97.30;;;;;;4995739;28;20474;-86
2021/12/11 03:37:15;;;;;;;31.77;12.00;;;-2.80;97.30;;;;;;4996778;28;20432;-87
2021/12/11 03:39:45;;;;;;;37.27;12.17;;;-2.70;97.30;;;;;;4996330;28;20460;-87
2021/12/11 03:42:15;;;;;;;37.23;12.30;;;-2.70;97.30;;;;;;4996265;28;20413;-86
2021/12/11 03:44:43;;;;;;;37.87;12.07;;;-2.60;97.30;;;;;;4996342;28;20899;-86
2021/12/11 03:47:13;;;;;;;46.60;12.23;;;-2.60;97.30;;;;;;4995722;28;20421;-86
2021/12/11 03:49:38;;;;;;;30.07;9.87;;;-2.70;97.30;;;;;;4995108;28;20491;-84
2021/12/11 03:52:06;;;;;;;28.47;10.30;;;-2.70;97.30;;;;;;4996589;28;20425;-87
2021/12/11 03:54:37;;;;;;;28.63;10.00;;;-2.80;97.30;;;;;;4996716;28;20185;-85
2021/12/11 03:57:09;;;;;;;28.10;10.30;;;-2.80;97.30;;;;;;4997771;28;20409;-85
2021/12/11 03:59:35;;;;;;;35.30;10.30;;;-2.80;97.30;;;;;;4995917;28;20495;-86
2021/12/11 04:02:06;;;;;;;54.90;13.70;;;-2.80;97.30;;;;;;4996586;28;20955;-86
2021/12/11 04:04:45;;;;;;;25.67;9.90;;;-2.90;97.30;;;;;;4997227;28;20644;-87
2021/12/11 04:07:15;;;;;;;33.77;9.43;;;-2.90;97.30;;;;;;4996011;28;20452;-86
2021/12/11 04:09:41;;;;;;;20.23;8.40;;;-2.90;97.30;;;;;;5011692;28;21085;-87
2021/12/11 04:12:08;;;;;;;26.17;9.03;;;-3.00;97.30;;;;;;4998716;28;20451;-86
2021/12/11 04:14:39;;;;;;;35.57;9.47;;;-3.00;97.30;;;;;;5016688;28;20416;-86
2021/12/11 04:17:07;;;;;;;17.50;7.73;;;-3.00;97.30;;;;;;4999102;28;20408;-86
2021/12/11 04:19:33;;;;;;;20.63;8.10;;;-3.00;97.30;;;;;;4998966;28;20551;-86
2021/12/11 04:21:59;;;;;;;22.80;8.93;;;-3.10;97.30;;;;;;4998614;28;20412;-86
2021/12/11 04:24:28;;;;;;;35.87;9.00;;;-3.10;97.30;;;;;;4998295;28;20472;-86
2021/12/11 04:26:57;;;;;;;28.33;9.43;;;-3.00;97.30;;;;;;4998869;28;20502;-85
2021/12/11 04:29:23;;;;;;;28.40;9.17;;;-3.00;97.30;;;;;;4998617;28;20443;-86
2021/12/11 04:31:50;;;;;;;31.80;10.03;;;-3.00;97.30;;;;;;5016259;28;20428;-87
2021/12/11 04:34:20;;;;;;;34.43;10.30;;;-3.00;97.30;;;;;;4998409;28;20719;-86
2021/12/11 04:37:16;;;;;;;55.33;12.63;;;-3.00;97.30;;;;;;4998175;28;20431;-86
2021/12/11 04:39:51;;;;;;;25.20;9.23;;;-3.00;97.30;;;;;;4997033;28;20526;-85
2021/12/11 04:45:16;;;;;;;24.10;8.83;;;-2.90;97.30;;;;;;4991906;28;20765;-86
2021/12/11 04:47:52;;;;;;;25.30;9.73;;;-2.90;97.30;;;;;;4998759;28;20405;-86
2021/12/11 04:50:29;;;;;;;37.33;9.57;;;-2.90;97.30;;;;;;4998387;28;20522;-87
2021/12/11 04:52:57;;;;;;;37.83;10.83;;;-2.90;97.30;;;;;;5016282;28;20412;-86
2021/12/11 05:11:42;;;;;;;36.30;10.10;;;-2.70;97.30;;;;;;5018548;28;20922;-85
2021/12/11 05:14:12;;;;;;;22.83;7.90;;;-2.70;97.30;;;;;;5001293;28;20419;-84
2021/12/11 05:16:38;;;;;;;28.97;10.03;;;-2.70;97.30;;;;;;5001162;28;20781;-84
2021/12/11 05:19:04;;;;;;;29.70;10.90;;;-2.60;97.30;;;;;;5002092;28;20844;-84
2021/12/11 05:21:30;;;;;;;27.40;9.90;;;-2.60;97.30;;;;;;5000313;28;20412;-85
2021/12/11 05:23:56;;;;;;;44.97;10.63;;;-2.60;97.30;;;;;;5000909;28;20412;-85
2021/12/11 05:26:22;;;;;;;27.23;10.83;;;-2.60;97.30;;;;;;5001625;28;20420;-85
2021/12/11 05:28:49;;;;;;;26.60;11.37;;;-2.60;97.30;;;;;;5018364;28;20192;-84
2021/12/11 05:31:15;;;;;;;36.03;10.50;;;-2.60;97.30;;;;;;5000514;28;20420;-84
2021/12/11 05:33:41;;;;;;;30.63;8.60;;;-2.60;97.30;;;;;;5001100;28;20421;-84
2021/12/11 05:36:09;;;;;;;38.30;9.87;;;-2.60;97.30;;;;;;4988341;28;20574;-84
2021/12/11 05:38:37;;;;;;;28.43;11.13;;;-2.50;97.30;;;;;;4979442;28;20469;-85
2021/12/11 05:41:05;;;;;;;28.83;9.70;;;-2.50;97.30;;;;;;4997344;28;20413;-85
2021/12/11 05:43:32;;;;;;;41.83;9.70;;;-2.50;97.30;;;;;;4981675;28;20440;-85
2021/12/11 05:45:58;;;;;;;30.37;9.80;;;-2.50;97.30;;;;;;4979115;28;20414;-85
2021/12/11 05:48:26;;;;;;;35.50;11.00;;;-2.50;97.30;;;;;;4979309;28;20587;-84
2021/12/11 05:50:57;;;;;;;45.07;11.37;;;-2.40;97.30;;;;;;4979724;28;20424;-84
2021/12/11 05:53:24;;;;;;;29.80;9.70;;;-2.40;97.30;;;;;;4980829;28;20412;-85
2021/12/11 05:55:52;;;;;;;43.10;9.03;;;-2.40;97.30;;;;;;4981429;28;20488;-85
2021/12/11 05:58:35;;;;;;;22.60;8.93;;;-2.40;97.30;;;;;;5001585;28;20456;-84
2021/12/11 06:01:04;;;;;;;27.73;10.37;;;-2.40;97.30;;;;;;4979815;28;20493;-85
2021/12/11 06:03:29;;;;;;;41.53;11.03;;;-2.40;97.30;;;;;;4980882;28;20409;-84
2021/12/11 06:05:59;;;;;;;33.13;11.47;;;-2.40;97.30;;;;;;4980607;28;20480;-84
2021/12/11 06:08:24;;;;;;;28.00;11.47;;;-2.30;97.30;;;;;;4981205;28;20182;-84
2021/12/11 06:10:50;;;;;;;32.97;10.67;;;-2.30;97.30;;;;;;4981118;28;20927;-85
2021/12/11 06:13:17;;;;;;;25.27;10.53;;;-2.30;97.30;;;;;;4979627;28;20672;-85
2021/12/11 06:15:43;;;;;;;31.10;11.10;;;-2.30;97.30;;;;;;4980109;28;20174;-84
2021/12/11 06:18:14;;;;;;;38.63;10.77;;;-2.30;97.30;;;;;;4980323;28;20457;-85
2021/12/11 06:20:40;;;;;;;28.97;9.70;;;-2.30;97.30;;;;;;4981407;28;20507;-85
2021/12/11 06:23:06;;;;;;;52.47;10.67;;;-2.30;97.30;;;;;;4981252;28;20839;-85
2021/12/11 06:25:34;;;;;;;38.43;9.80;;;-2.30;97.30;;;;;;4980972;28;20174;-85
2021/12/11 06:28:02;;;;;;;26.83;9.33;;;-2.40;97.30;;;;;;4981666;28;20444;-85
2021/12/11 06:30:28;;;;;;;49.13;9.60;;;-2.40;97.30;;;;;;4981765;28;20433;-86
2021/12/11 06:32:55;;;;;;;21.10;9.43;;;-2.40;97.30;;;;;;4982407;28;20409;-85
2021/12/11 06:35:27;;;;;;;36.60;9.97;;;-2.50;97.30;;;;;;4982194;28;20204;-85
2021/12/11 06:37:53;;;;;;;22.77;8.30;;;-2.50;97.30;;;;;;4982688;28;20405;-83
2021/12/11 06:40:19;;;;;;;34.73;9.80;;;-2.60;97.30;;;;;;4980754;28;20444;-85
2021/12/11 06:42:45;;;;;;;33.93;11.03;;;-2.60;97.30;;;;;;4980909;28;20666;-84
2021/12/11 06:45:10;;;;;;;27.37;9.50;;;-2.60;97.30;;;;;;4968587;28;20413;-83
2021/12/11 06:47:36;;;;;;;34.87;8.57;;;-2.70;97.30;;;;;;4961592;28;20175;-85
2021/12/11 06:50:04;;;;;;;22.33;8.10;;;-2.70;97.30;;;;;;4970981;28;20202;-85
2021/12/11 06:52:30;;;;;;;35.87;10.13;;;-2.60;97.30;;;;;;4960986;28;20182;-84
2021/12/11 06:54:56;;;;;;;27.03;9.40;;;-2.60;97.30;;;;;;4972057;28;20420;-85
2021/12/11 06:57:23;;;;;;;27.00;9.40;;;-2.50;97.30;;;;;;4962156;28;20194;-85
2021/12/11 06:59:48;;;;;;;29.80;10.23;;;-2.60;97.30;;;;;;4967956;28;20252;-84
2021/12/11 07:02:19;;;;;;;23.27;10.10;;;-2.60;97.30;;;;;;4985414;28;20992;-85
2021/12/11 07:04:45;;;;;;;37.30;10.43;;;-2.60;97.30;;;;;;4976756;28;20179;-82
2021/12/11 07:07:16;;;;;;;31.30;11.57;;;-2.60;97.30;;;;;;4984585;28;20422;-85
2021/12/11 07:09:42;;;;;;;28.10;9.23;;;-2.60;97.30;;;;;;4984271;28;20831;-81
2021/12/11 07:12:08;;;;;;;24.67;10.67;;;-2.50;97.30;;;;;;4990510;28;20437;-85
2021/12/11 07:14:34;;;;;;;31.80;9.93;;;-2.50;97.30;;;;;;4977390;28;20209;-84
2021/12/11 07:17:00;;;;;;;27.73;9.53;;;-2.40;97.30;;;;;;4979169;28;20857;-80
2021/12/11 07:19:25;;;;;;;31.47;11.23;;;-2.40;97.30;;;;;;4986447;28;20289;-82
2021/12/11 07:21:51;;;;;;;33.07;11.30;;;-2.40;97.30;;;;;;4976094;28;20448;-83
2021/12/11 07:24:32;;;;;;;25.00;9.50;;;-2.40;97.30;;;;;;4986282;28;20253;-85
2021/12/11 07:27:00;;;;;;;25.33;9.93;;;-2.30;97.30;;;;;;4980902;28;20410;-80
2021/12/11 07:29:26;;;;;;;24.43;10.20;;;-2.30;97.30;;;;;;4977605;28;20457;-85
2021/12/11 07:31:53;;;;;;;30.00;10.93;;;-2.40;97.30;;;;;;4983582;28;20488;-84
2021/12/11 07:34:19;;;;;;;32.20;10.43;;;-2.40;97.30;;;;;;4976580;28;20255;-86
2021/12/11 07:36:46;;;;;;;31.13;10.73;;;-2.30;97.30;;;;;;4974681;28;20564;-84
2021/12/11 07:39:15;;;;;;;25.90;10.07;;;-2.30;97.30;;;;;;4985750;28;20520;-85
2021/12/11 07:41:41;;;;;;;32.97;11.47;;;-2.30;97.30;;;;;;4982778;28;20429;-84
2021/12/11 07:44:07;;;;;;;29.73;10.13;;;-2.20;97.30;;;;;;4981389;28;20424;-84
2021/12/11 07:46:34;;;;;;;24.53;9.27;;;-2.20;97.30;;;;;;4981512;28;20509;-84
2021/12/11 07:49:03;;;;;;;25.80;9.80;;;-2.30;97.30;;;;;;4977787;28;20230;-86
2021/12/11 07:51:30;;;;;;;28.67;10.70;;;-2.30;97.30;;;;;;4985725;28;20445;-79
2021/12/11 07:53:56;;;;;;;32.50;10.63;;;-2.40;97.30;;;;;;4983039;28;20421;-80
2021/12/11 07:56:22;;;;;;;26.00;9.17;;;-2.40;97.30;;;;;;4981342;28;20426;-82
2021/12/11 07:58:50;;;;;;;27.50;10.40;;;-2.40;97.30;;;;;;4980163;28;20976;-85
2021/12/11 08:01:17;;;;;;;22.30;9.60;;;-2.40;97.30;;;;;;4978923;28;20429;-83
2021/12/11 08:03:42;;;;;;;29.67;11.47;;;-2.40;97.30;;;;;;4978149;28;20425;-84
2021/12/11 08:06:10;;;;;;;31.43;11.23;;;-2.30;97.30;;;;;;4978187;28;20787;-85
2021/12/11 08:08:37;;;;;;;35.70;11.87;;;-2.30;97.30;;;;;;4977041;28;20200;-85
2021/12/11 08:11:11;;;;;;;31.67;10.97;;;-2.30;97.30;;;;;;4992645;28;20508;-84
2021/12/11 08:13:37;;;;;;;27.73;9.90;;;-2.30;97.30;;;;;;4980802;28;20423;-84
2021/12/11 08:16:04;;;;;;;28.53;10.10;;;-2.30;97.30;;;;;;4981004;28;20421;-85
2021/12/11 08:18:30;;;;;;;27.37;9.70;;;-2.30;97.30;;;;;;4989268;28;20578;-84
2021/12/11 08:20:56;;;;;;;35.77;11.13;;;-2.20;97.30;;;;;;5009916;28;20449;-83
2021/12/11 08:23:22;;;;;;;35.60;10.53;;;-2.10;97.30;;;;;;4992156;28;20182;-83
2021/12/11 08:25:50;;;;;;;20.77;9.80;;;-2.10;97.30;;;;;;4981963;28;20180;-82
2021/12/11 08:28:23;;;;;;;43.03;12.50;;;-2.10;97.30;;;;;;4993382;28;20417;-82
2021/12/11 08:30:50;;;;;;;25.60;9.07;;;-2.00;97.30;;;;;;4999102;28;21157;-82
2021/12/11 08:33:16;;;;;;;40.13;12.00;;;-2.00;97.30;;;;;;4982844;28;20461;-83
2021/12/11 08:35:43;;;;;;;39.63;12.60;;;-2.00;97.30;;;;;;4983793;28;20485;-82
2021/12/11 08:38:09;;;;;;;33.77;12.73;;;-2.00;97.30;;;;;;4993156;28;20432;-83
2021/12/11 08:40:41;;;;;;;33.40;11.63;;;-1.90;97.30;;;;;;4998063;28;20433;-83
2021/12/11 08:43:09;;;;;;;32.73;10.17;;;-1.90;97.30;;;;;;5001770;28;20788;-82
2021/12/11 08:45:47;;;;;;;36.57;11.60;;;-1.90;97.30;;;;;;4982406;28;20516;-84
2021/12/11 08:48:20;;;;;;;44.60;12.40;;;-1.90;97.30;;;;;;4985087;28;20990;-81
2021/12/11 08:50:50;;;;;;;34.93;11.30;;;-1.80;97.30;;;;;;5000358;28;20420;-84
2021/12/11 08:53:18;;;;;;;54.00;16.37;;;-1.80;97.30;;;;;;5003072;28;20415;-82
2021/12/11 08:55:47;;;;;;;44.10;14.83;;;-1.80;97.30;;;;;;5005018;28;21030;-82
2021/12/11 08:58:16;;;;;;;52.07;15.40;;;-1.70;97.30;;;;;;4998918;28;20522;-81
2021/12/11 09:00:44;;;;;;;39.10;13.20;;;-1.70;97.30;;;;;;4997074;28;20967;-84
2021/12/11 09:03:15;;;;;;;31.63;12.03;;;-1.60;97.30;;;;;;5000233;28;20810;-83
2021/12/11 09:05:49;;;;;;;44.40;11.90;;;-1.60;97.30;;;;;;4983503;28;20425;-82
2021/12/11 09:08:38;;;;;;;36.60;11.97;;;-1.60;97.30;;;;;;4981282;28;21006;-81
2021/12/11 09:11:10;;;;;;;44.53;11.60;;;-1.60;97.30;;;;;;4980179;28;20430;-79
2021/12/11 09:13:47;;;;;;;36.77;10.50;;;-1.60;97.30;;;;;;4979556;28;20424;-79
2021/12/11 09:16:42;;;;;;;44.53;13.23;;;-1.60;97.30;;;;;;4979980;28;20416;-77
2021/12/11 09:19:21;;;;;;;42.60;11.87;;;-1.60;97.30;;;;;;4989723;28;20582;-78
2021/12/11 09:21:51;;;;;;;39.10;12.50;;;-1.60;97.30;;;;;;4990640;28;20962;-79
2021/12/11 09:24:43;;;;;;;33.37;11.47;;;-1.60;97.30;;;;;;4982329;28;20515;-82
2021/12/11 09:27:24;;;;;;;33.30;10.57;;;-1.60;97.30;;;;;;4980800;28;20516;-82
2021/12/11 09:30:06;;;;;;;45.23;12.70;;;-1.60;97.30;;;;;;4998939;28;20452;-83
2021/12/11 09:32:40;;;;;;;34.33;10.97;;;-1.50;97.30;;;;;;4997569;28;20428;-82
2021/12/11 09:35:26;;;;;;;43.43;12.77;;;-1.40;97.30;;;;;;4997550;28;20876;-85
2021/12/11 09:37:59;;;;;;;49.30;13.13;;;-1.40;97.30;;;;;;4988418;28;20435;-84
2021/12/11 09:40:37;;;;;;;34.63;11.50;;;-1.40;97.30;;;;;;4996277;28;20444;-83
2021/12/11 09:43:03;;;;;;;33.93;10.60;;;-1.30;97.30;;;;;;4980409;28;20417;-84
2021/12/11 09:45:40;;;;;;;37.47;11.80;;;-1.30;97.30;;;;;;4979852;28;20505;-84
2021/12/11 09:48:15;;;;;;;32.60;12.30;;;-1.40;97.30;;;;;;4984352;28;20427;-85
2021/12/11 09:50:50;;;;;;;46.67;12.40;;;-1.30;97.30;;;;;;5000659;28;20427;-83
2021/12/11 09:53:18;;;;;;;41.93;14.70;;;-1.20;97.30;;;;;;5001140;28;20443;-81
2021/12/11 09:55:44;;;;;;;42.33;11.60;;;-1.20;97.30;;;;;;5001980;28;20786;-86
2021/12/11 09:58:14;;;;;;;40.03;12.40;;;-1.20;97.30;;;;;;4988784;28;20470;-84
2021/12/11 10:00:53;;;;;;;39.70;11.87;;;-1.20;97.30;;;;;;4977953;28;20473;-85
2021/12/11 10:03:23;;;;;;;39.33;11.67;;;-1.20;97.30;;;;;;4978022;28;20789;-85
2021/12/11 10:06:10;;;;;;;37.90;11.60;;;-1.20;97.30;;;;;;4979319;28;20417;-84
2021/12/11 10:08:38;;;;;;;44.83;13.17;;;-1.20;97.30;;;;;;5001325;28;20540;-85
2021/12/11 10:11:10;;;;;;;41.57;13.47;;;-1.20;97.30;;;;;;4995736;28;20512;-83
2021/12/11 10:13:41;;;;;;;37.00;12.37;;;-1.20;97.30;;;;;;4986148;28;20440;-84
2021/12/11 10:16:06;;;;;;;41.80;12.77;;;-1.20;97.30;;;;;;4996120;28;20794;-84
2021/12/11 10:18:33;;;;;;;35.03;12.23;;;-1.20;97.30;;;;;;4983340;28;20464;-81
2021/12/11 10:21:01;;;;;;;44.77;14.30;;;-1.20;97.30;;;;;;4982085;28;20182;-83
2021/12/11 10:23:30;;;;;;;41.70;13.00;;;-1.20;97.30;;;;;;4999365;28;20482;-84
2021/12/11 10:25:59;;;;;;;36.40;12.93;;;-1.20;97.30;;;;;;5008047;28;20416;-83
2021/12/11 10:28:27;;;;;;;33.43;13.40;;;-1.20;97.30;;;;;;4993048;28;20449;-83
2021/12/11 10:31:07;;;;;;;32.83;12.50;;;-1.20;97.30;;;;;;4995715;28;20644;-84
2021/12/11 10:33:33;;;;;;;34.53;12.00;;;-1.20;97.30;;;;;;4986625;28;20431;-84
2021/12/11 10:36:07;;;;;;;34.73;14.97;;;-1.20;97.30;;;;;;4990504;28;20433;-84
2021/12/11 10:38:33;;;;;;;37.53;13.77;;;-1.20;97.30;;;;;;4995833;28;20487;-83
2021/12/11 10:41:00;;;;;;;39.87;12.00;;;-1.20;97.30;;;;;;4990697;28;20781;-87
2021/12/11 10:43:31;;;;;;;43.87;14.63;;;-1.20;97.30;;;;;;4981748;28;20192;-85
2021/12/11 10:46:00;;;;;;;39.67;13.50;;;-1.10;97.30;;;;;;5009667;28;20431;-85
2021/12/11 10:48:31;;;;;;;44.47;14.47;;;-1.10;97.30;;;;;;5013150;28;20463;-85
2021/12/11 10:51:06;;;;;;;36.80;12.67;;;-1.10;97.30;;;;;;4990575;28;20424;-86
2021/12/11 10:53:34;;;;;;;52.50;16.47;;;-1.00;97.30;;;;;;4986328;28;20922;-86
2021/12/11 10:56:03;;;;;;;32.80;12.00;;;-1.00;97.30;;;;;;5015484;28;20420;-85
2021/12/11 11:04:02;;;;;;;45.40;14.63;;;-0.90;97.30;;;;;;5006135;28;20860;-87
2021/12/11 11:06:31;;;;;;;35.70;12.87;;;-0.90;97.30;;;;;;4977367;28;20961;-87
2021/12/11 11:09:01;;;;;;;38.53;12.93;;;-0.80;97.30;;;;;;5013417;28;20461;-88
2021/12/11 11:11:30;;;;;;;38.27;13.10;;;-0.80;97.30;;;;;;5033231;28;20415;-88
2021/12/11 11:14:06;;;;;;;;;;;;;;;;;;;;;
2021/12/11 11:16:33;;;;;;;42.10;14.07;;;-0.60;97.30;;;;;;5015668;28;20483;-85
2021/12/11 11:19:03;;;;;;;40.53;13.67;;;-0.60;97.30;;;;;;5012462;28;20562;-87
2021/12/11 11:21:42;;;;;;;36.37;12.80;;;-0.50;97.30;;;;;;4997207;28;20483;-87
2021/12/11 11:24:12;;;;;;;48.63;15.97;;;-0.40;97.30;;;;;;4996846;28;20477;-86
2021/12/11 11:26:43;;;;;;;56.27;15.57;;;-0.40;97.30;;;;;;5012531;28;20423;-83
2021/12/11 11:29:13;;;;;;;49.40;15.60;;;-0.40;97.30;;;;;;5017855;28;20494;-87
2021/12/11 11:31:43;;;;;;;46.93;14.73;;;-0.30;97.30;;;;;;5004107;28;20461;-88
2021/12/11 11:34:19;;;;;;;47.60;15.77;;;-0.30;97.30;;;;;;5005161;28;20412;-87
2021/12/11 11:36:51;;;;;;;38.97;14.40;;;-0.20;97.30;;;;;;4996578;28;20423;-86
2021/12/11 11:39:23;;;;;;;58.47;17.57;;;-0.20;97.30;;;;;;4995529;28;20467;-87
2021/12/11 11:41:58;;;;;;;42.97;15.13;;;-0.10;97.30;;;;;;4996948;28;20419;-87
2021/12/11 11:44:30;;;;;;;62.30;18.03;;;-0.10;97.30;;;;;;5014762;28;20910;-87
2021/12/11 11:47:02;;;;;;;52.67;15.00;;;-0.10;97.30;;;;;;4998754;28;20419;-86
2021/12/11 11:49:32;;;;;;;51.33;17.37;;;0.00;97.30;;;;;;4998620;28;20447;-87
2021/12/11 11:52:08;;;;;;;56.13;17.97;;;0.00;97.30;;;;;;4998134;28;20423;-84
2021/12/11 11:54:44;;;;;;;72.27;17.70;;;0.00;97.30;;;;;;4998110;28;20428;-87
2021/12/11 11:57:19;;;;;;;69.63;21.00;;;0.00;97.30;;;;;;5002046;28;20427;-84
2021/12/11 11:59:45;;;;;;;73.03;19.90;;;0.10;97.30;;;;;;5001418;28;20463;-87
2021/12/11 12:02:19;;;;;;;79.77;23.43;;;0.10;97.30;;;;;;5005874;28;20494;-88
2021/12/11 12:04:49;;;;;;;60.63;19.00;;;0.10;97.30;;;;;;5016857;28;20420;-88
2021/12/11 12:07:26;;;;;;;80.40;21.30;;;0.10;97.30;;;;;;5016717;28;20427;-87
2021/12/11 12:10:00;;;;;;;80.60;19.83;;;0.10;97.30;;;;;;5018809;28;20523;-83
2021/12/11 12:12:31;;;;;;;69.87;22.47;;;0.10;97.30;;;;;;5017549;28;20441;-84
2021/12/11 12:15:00;;;;;;;79.77;21.60;;;0.20;97.30;;;;;;5029100;28;20427;-87
2021/12/11 12:17:30;;;;;;;72.87;17.87;;;0.10;97.30;;;;;;5008715;28;20434;-88
2021/12/11 12:20:03;;;;;;;65.70;18.60;;;0.20;97.30;;;;;;5016256;28;20455;-87
2021/12/11 12:22:32;;;;;;;64.67;17.67;;;0.20;97.30;;;;;;5015653;28;20812;-87
2021/12/11 12:25:02;;;;;;;62.53;16.90;;;0.10;97.30;;;;;;5015615;28;20423;-87
2021/12/11 12:27:32;;;;;;;69.63;18.83;;;0.30;97.30;;;;;;5014306;28;20428;-87
2021/12/11 12:30:02;;;;;;;58.93;18.37;;;0.30;97.30;;;;;;5013942;28;20450;-86
2021/12/11 12:32:31;;;;;;;56.13;17.67;;;0.70;97.30;;;;;;5034590;28;20473;-88
2021/12/11 12:35:00;;;;;;;83.77;22.20;;;1.00;97.30;;;;;;5015050;28;20933;-85
2021/12/11 12:37:26;;;;;;;74.90;19.37;;;1.30;97.30;;;;;;5014713;28;20938;-86
2021/12/11 12:39:55;;;;;;;72.00;20.10;;;1.50;97.30;;;;;;5015433;28;20520;-89
2021/12/11 12:42:35;;;;;;;50.47;16.07;;;1.90;97.30;;;;;;5015704;28;20420;-88
2021/12/11 12:45:46;;;;;;;59.33;17.00;;;2.20;97.30;;;;;;5018049;28;20446;-88
2021/12/11 12:48:16;;;;;;;53.37;16.90;;;2.20;97.30;;;;;;5013194;28;20424;-87
2021/12/11 12:50:53;;;;;;;48.20;16.33;;;2.10;97.30;;;;;;5014172;28;20969;-88
2021/12/11 12:53:19;;;;;;;46.60;15.47;;;2.00;97.30;;;;;;5014104;28;20495;-88
2021/12/11 12:55:56;;;;;;;66.03;17.87;;;1.90;97.30;;;;;;5011773;28;20945;-87
2021/12/11 12:58:30;;;;;;;57.23;16.70;;;1.90;97.30;;;;;;5010266;28;20456;-87
2021/12/11 13:01:13;;;;;;;54.53;16.50;;;1.80;97.30;;;;;;5011389;28;20535;-87
2021/12/11 13:03:41;;;;;;;39.67;13.90;;;1.70;97.30;;;;;;5001928;28;20684;-87
2021/12/11 13:06:15;;;;;;;48.50;14.93;;;1.60;97.30;;;;;;5016292;28;20421;-87
2021/12/11 13:08:50;;;;;;;62.10;17.67;;;1.50;97.30;;;;;;5024202;28;20444;-85
2021/12/11 13:11:23;;;;;;;46.63;15.27;;;1.50;97.30;;;;;;5014861;28;20436;-86
2021/12/11 13:13:51;;;;;;;63.70;21.97;;;1.40;97.30;;;;;;5015834;28;20441;-86
2021/12/11 13:16:43;;;;;;;42.23;15.73;;;1.30;97.30;;;;;;5007502;28;20421;-86